Time;durP1;ratioP1;P1;durP2;ratioP2;P2;SDS_P1;SDS_P2;PMS_P1;PMS_P2;Temp;Humidity;BMP_temperature;BMP_pressure;BME280_temperature;BME280_humidity;BME280_pressure;Samples;Min_cycle;Max_cycle;Signal;HPM_P1;HPM_P2
2022/04/21 00:20:24;;;;;;;7.53;4.90;;;;;;;14.09;41.98;99458.81;4964733;28;20596;-85
2022/04/21 00:25:38;;;;;;;9.55;5.25;;;;;;;14.07;42.47;99449.31;4979737;28;20103;-86
2022/04/21 00:28:06;;;;;;;10.55;5.80;;;;;;;14.04;42.70;99452.28;4986202;28;20051;-85
2022/04/21 00:30:32;;;;;;;7.25;4.57;;;;;;;13.99;42.96;99454.63;4986885;28;20486;-85
2022/04/21 00:32:59;;;;;;;5.57;4.50;;;;;;;13.94;43.59;99455.13;4970559;28;20125;-84
2022/04/21 00:35:26;;;;;;;8.40;4.65;;;;;;;13.92;43.32;99449.13;4985705;28;20057;-86
2022/04/21 00:37:55;;;;;;;7.97;5.60;;;;;;;13.90;43.30;99459.97;4981154;28;20046;-86
2022/04/21 00:40:26;;;;;;;7.65;4.72;;;;;;;13.87;43.24;99454.97;4986738;28;20068;-85
2022/04/21 00:42:54;;;;;;;5.68;5.00;;;;;;;13.90;43.19;99456.47;4978306;28;20050;-85
2022/04/21 00:45:21;;;;;;;10.85;5.07;;;;;;;13.86;42.87;99453.28;4992044;28;20498;-85
2022/04/21 00:47:49;;;;;;;8.10;5.47;;;;;;;13.92;42.50;99445.63;4987532;28;20112;-86
2022/04/21 00:50:25;;;;;;;6.30;5.35;;;;;;;13.80;42.98;99447.78;4993257;28;20042;-86
2022/04/21 00:52:52;;;;;;;6.10;4.93;;;;;;;13.82;42.60;99443.97;5002209;28;20442;-83
2022/04/21 00:55:20;;;;;;;5.85;5.20;;;;;;;13.75;43.50;99442.13;4983444;28;20050;-86
2022/04/21 00:57:48;;;;;;;7.32;5.32;;;;;;;13.75;43.16;99444.78;4968414;28;20401;-86
2022/04/21 01:00:16;;;;;;;7.15;4.72;;;;;;;13.70;43.10;99445.28;4985204;28;20080;-86
2022/04/21 01:02:54;;;;;;;6.15;5.30;;;;;;;13.66;42.83;99441.25;4983447;28;20970;-85
2022/04/21 01:05:29;;;;;;;6.28;5.35;;;;;;;13.53;43.42;99430.25;4970054;28;20052;-86
2022/04/21 01:08:14;;;;;;;9.18;4.55;;;;;;;13.38;43.90;99436.25;4968207;28;20044;-85
2022/04/21 01:10:42;;;;;;;6.63;5.20;;;;;;;13.51;43.56;99432.25;4994594;28;20046;-86
2022/04/21 01:13:12;;;;;;;8.93;5.50;;;;;;;13.49;43.78;99436.94;4983928;28;20050;-86
2022/04/21 01:15:40;;;;;;;7.72;5.25;;;;;;;13.51;43.63;99440.25;4969624;28;20065;-85
2022/04/21 01:18:07;;;;;;;8.70;5.25;;;;;;;13.49;43.40;99439.59;5001191;28;20125;-86
2022/04/21 01:20:34;;;;;;;10.85;5.93;;;;;;;13.48;43.67;99443.25;4983144;28;20054;-86
2022/04/21 01:23:03;;;;;;;8.07;5.00;;;;;;;13.45;43.88;99439.06;4986094;28;20097;-86
2022/04/21 01:25:39;;;;;;;6.22;5.25;;;;;;;13.36;44.14;99435.56;4987086;28;20144;-86
2022/04/21 01:28:07;;;;;;;6.78;4.57;;;;;;;13.45;43.49;99439.91;4972017;28;22686;-86
2022/04/21 01:30:34;;;;;;;6.82;5.80;;;;;;;13.45;43.40;99439.06;4965698;28;20058;-86
2022/04/21 01:33:01;;;;;;;7.20;5.15;;;;;;;13.46;43.55;99440.75;4967145;28;20062;-85
2022/04/21 01:35:27;;;;;;;8.90;6.38;;;;;;;13.45;43.80;99428.41;4968326;28;20693;-85
2022/04/21 01:43:26;;;;;;;8.30;6.05;;;;;;;13.32;43.63;99426.22;4964732;28;20039;-85
2022/04/21 01:45:52;;;;;;;7.28;5.85;;;;;;;13.28;43.44;99416.88;4965382;28;20050;-85
2022/04/21 01:48:20;;;;;;;8.25;5.28;;;;;;;13.25;44.13;99419.81;4982536;28;21758;-85
2022/04/21 01:50:46;;;;;;;12.63;5.75;;;;;;;13.20;44.30;99425.66;4986801;28;20122;-85
2022/04/21 01:53:13;;;;;;;8.10;5.35;;;;;;;13.18;44.66;99425.00;4989200;28;20050;-85
2022/04/21 01:55:40;;;;;;;6.72;5.18;;;;;;;13.15;44.77;99422.66;4981060;28;20070;-84
2022/04/21 01:58:09;;;;;;;8.27;5.13;;;;;;;13.09;44.69;99415.28;4988773;28;20125;-86
2022/04/21 02:00:36;;;;;;;7.40;5.50;;;;;;;13.08;44.95;99421.63;4987126;28;20053;-85
2022/04/21 02:03:03;;;;;;;7.78;5.35;;;;;;;13.07;45.30;99413.78;4970364;28;20042;-86
2022/04/21 02:05:29;;;;;;;7.07;5.10;;;;;;;13.05;45.32;99411.28;4988121;28;20046;-85
2022/04/21 02:07:57;;;;;;;8.38;5.53;;;;;;;13.03;45.19;99414.13;4988831;28;20133;-85
2022/04/21 02:10:24;;;;;;;5.88;5.22;;;;;;;13.01;45.37;99410.78;4983339;28;20045;-85
2022/04/21 02:12:51;;;;;;;11.60;5.60;;;;;;;13.00;45.29;99401.13;4985528;28;20518;-86
2022/04/21 02:15:18;;;;;;;7.32;5.93;;;;;;;13.00;44.82;99402.94;4984375;28;20105;-85
2022/04/21 02:17:45;;;;;;;8.90;6.35;;;;;;;12.97;45.26;99404.09;4983751;28;20049;-85
2022/04/21 02:20:15;;;;;;;7.88;5.88;;;;;;;12.95;44.82;99403.44;4998838;28;20068;-86
2022/04/21 02:22:45;;;;;;;8.23;6.70;;;;;;;12.95;45.09;99406.09;4981761;28;20046;-86
2022/04/21 02:25:13;;;;;;;9.45;6.40;;;;;;;12.93;44.92;99401.94;4986728;28;20038;-86
2022/04/21 02:27:42;;;;;;;10.38;7.20;;;;;;;12.93;44.85;99400.09;4984053;28;20046;-86
2022/04/21 02:30:10;;;;;;;8.02;6.85;;;;;;;12.95;44.80;99399.91;4987445;28;20049;-86
2022/04/21 02:32:37;;;;;;;9.63;6.93;;;;;;;12.87;44.61;99397.22;4984660;28;20066;-85
2022/04/21 02:35:05;;;;;;;10.15;7.82;;;;;;;12.87;44.92;99405.22;4990034;28;20692;-86
2022/04/21 02:37:39;;;;;;;9.15;7.25;;;;;;;12.77;45.16;99395.53;4990216;28;20046;-85
2022/04/21 02:40:09;;;;;;;8.80;6.53;;;;;;;12.83;45.13;99402.06;4947118;28;20450;-86
2022/04/21 02:42:38;;;;;;;8.77;7.05;;;;;;;12.82;45.15;99403.88;5005107;28;20042;-86
2022/04/21 02:45:09;;;;;;;11.50;6.88;;;;;;;12.78;44.96;99391.88;4985321;28;20078;-86
2022/04/21 02:47:37;;;;;;;9.25;7.28;;;;;;;12.80;45.04;99397.06;4965873;28;20054;-84
2022/04/21 02:50:08;;;;;;;9.02;7.68;;;;;;;12.72;45.26;99395.19;4980621;28;20425;-86
2022/04/21 02:52:36;;;;;;;10.88;7.18;;;;;;;12.77;45.03;99384.88;4967251;28;20053;-86
2022/04/21 02:57:48;;;;;;;9.98;7.50;;;;;;;12.73;45.34;99386.19;4933644;28;20073;-85
2022/04/21 03:00:15;;;;;;;8.43;7.38;;;;;;;12.71;45.36;99390.84;4994387;28;20046;-86
2022/04/21 03:02:42;;;;;;;9.93;8.00;;;;;;;12.72;45.10;99378.34;4979778;28;20096;-85
2022/04/21 03:05:09;;;;;;;10.52;7.68;;;;;;;12.67;45.52;99375.34;4983990;28;20056;-84
2022/04/21 03:07:35;;;;;;;8.38;7.20;;;;;;;12.65;45.50;99386.16;4965932;28;20397;-86
2022/04/21 03:10:02;;;;;;;9.13;7.72;;;;;;;12.66;45.57;99381.66;4986518;28;20049;-85
2022/04/21 03:12:29;;;;;;;11.77;8.80;;;;;;;12.64;45.34;99378.31;4983516;28;21109;-84
2022/04/21 03:14:57;;;;;;;10.05;7.45;;;;;;;12.66;45.57;99377.16;4984671;28;20086;-85
2022/04/21 03:17:25;;;;;;;8.38;6.90;;;;;;;12.66;45.70;99382.50;4999397;28;20034;-86
2022/04/21 03:19:54;;;;;;;10.20;7.18;;;;;;;12.67;45.84;99380.66;4969672;28;20108;-85
2022/04/21 03:25:07;;;;;;;11.18;7.30;;;;;;;12.66;45.62;99385.16;4939286;28;20046;-86
2022/04/21 03:27:34;;;;;;;10.82;7.28;;;;;;;12.65;45.78;99386.16;4999094;28;20457;-87
2022/04/21 03:30:03;;;;;;;9.98;7.25;;;;;;;12.67;45.95;99388.66;4984296;28;20061;-86
2022/04/21 03:32:29;;;;;;;8.35;7.40;;;;;;;12.65;45.65;99393.31;4983653;28;20046;-85
2022/04/21 03:34:56;;;;;;;9.15;7.75;;;;;;;12.62;45.68;99383.81;4988564;28;20050;-85
2022/04/21 03:37:23;;;;;;;11.25;7.30;;;;;;;12.62;45.76;99374.97;4988355;28;20055;-83
2022/04/21 03:39:50;;;;;;;8.85;7.95;;;;;;;12.60;46.01;99380.47;4986897;28;20049;-85
2022/04/21 03:42:25;;;;;;;10.15;8.20;;;;;;;12.51;46.43;99390.25;4989985;28;20562;-80
2022/04/21 03:44:51;;;;;;;11.10;8.52;;;;;;;12.55;46.08;99388.13;4973903;28;20062;-80
2022/04/21 03:47:19;;;;;;;8.57;7.35;;;;;;;12.51;46.50;99387.59;4971122;28;20121;-80
2022/04/21 03:49:46;;;;;;;9.75;8.25;;;;;;;12.46;46.56;99389.88;4987554;28;20513;-82
2022/04/21 03:52:13;;;;;;;11.07;8.40;;;;;;;12.42;46.68;99385.88;4990691;28;20511;-81
2022/04/21 03:54:40;;;;;;;10.00;7.65;;;;;;;12.38;46.56;99384.53;5002186;28;20074;-81
2022/04/21 03:57:07;;;;;;;13.80;10.27;;;;;;;12.36;46.54;99382.03;4988600;28;20413;-82
2022/04/21 03:59:36;;;;;;;12.40;8.90;;;;;;;12.38;46.36;99384.53;4987744;28;20058;-81
2022/04/21 04:02:04;;;;;;;13.57;9.70;;;;;;;12.36;46.18;99387.38;4970516;28;20050;-81
2022/04/21 04:04:33;;;;;;;11.23;9.73;;;;;;;12.27;46.27;99390.97;5003476;28;20054;-82
2022/04/21 04:12:32;;;;;;;13.65;9.93;;;;;;;12.17;46.72;99390.25;4968455;28;20035;-82
2022/04/21 04:14:59;;;;;;;13.00;9.35;;;;;;;12.15;46.69;99381.56;4972238;28;20043;-82
2022/04/21 04:17:30;;;;;;;11.25;9.40;;;;;;;12.12;46.74;99380.06;4991453;28;20137;-82
2022/04/21 04:19:57;;;;;;;14.13;10.07;;;;;;;12.10;47.00;99382.03;4974729;28;20050;-81
2022/04/21 04:22:24;;;;;;;10.77;9.40;;;;;;;12.09;46.77;99388.34;4971843;28;20042;-82
2022/04/21 04:24:53;;;;;;;12.25;9.50;;;;;;;12.06;47.19;99382.50;4991110;28;20125;-81
2022/04/21 04:27:24;;;;;;;13.27;9.43;;;;;;;12.03;47.66;99375.66;5002587;28;20057;-82
2022/04/21 04:29:50;;;;;;;11.57;8.98;;;;;;;12.06;47.30;99374.50;5001590;28;20054;-82
2022/04/21 04:32:17;;;;;;;13.77;9.07;;;;;;;12.06;47.41;99378.03;5005308;28;20077;-81
2022/04/21 04:34:44;;;;;;;16.73;10.05;;;;;;;12.03;47.58;99375.66;4986035;28;20069;-81
2022/04/21 04:37:11;;;;;;;18.42;11.35;;;;;;;12.02;47.48;99375.84;4970487;28;20136;-81
2022/04/21 04:39:37;;;;;;;13.32;9.77;;;;;;;12.00;47.51;99377.81;4981140;28;20042;-81
2022/04/21 04:42:16;;;;;;;13.95;9.82;;;;;;;11.97;47.53;99378.13;4985605;28;20137;-82
2022/04/21 04:44:48;;;;;;;13.63;9.82;;;;;;;11.91;48.21;99377.75;5000575;28;20056;-82
2022/04/21 04:47:15;;;;;;;13.95;10.15;;;;;;;11.93;47.54;99381.09;4989749;28;20046;-82
2022/04/21 04:49:42;;;;;;;15.00;10.13;;;;;;;11.92;47.48;99371.44;4954088;28;20042;-81
2022/04/21 04:52:09;;;;;;;13.52;10.55;;;;;;;11.93;47.55;99378.44;4987021;28;20044;-81
2022/04/21 04:54:36;;;;;;;15.02;10.57;;;;;;;11.91;47.95;99380.41;4985903;28;20050;-82
2022/04/21 04:57:02;;;;;;;14.45;9.50;;;;;;;11.92;48.00;99381.25;4984099;28;20050;-82
2022/04/21 04:59:29;;;;;;;11.93;9.63;;;;;;;11.94;48.19;99382.75;4986112;28;20126;-82
2022/04/21 05:01:57;;;;;;;13.27;9.60;;;;;;;11.95;48.14;99384.44;4987865;28;20463;-82
2022/04/21 05:04:24;;;;;;;14.43;9.38;;;;;;;11.97;48.04;99380.78;4999680;28;20035;-81
2022/04/21 05:06:53;;;;;;;16.73;9.80;;;;;;;11.94;48.31;99387.25;4984836;28;20140;-82
2022/04/21 05:09:22;;;;;;;14.82;9.68;;;;;;;11.93;48.20;99389.09;4969748;28;20054;-82
2022/04/21 05:11:52;;;;;;;15.68;9.52;;;;;;;11.90;48.31;99381.41;5002070;28;20049;-81
2022/04/21 05:14:19;;;;;;;12.25;9.55;;;;;;;11.89;48.36;99382.41;4981707;28;20494;-82
2022/04/21 05:16:47;;;;;;;13.38;10.23;;;;;;;11.88;48.47;99380.75;4967968;28;20060;-82
2022/04/21 05:19:15;;;;;;;14.80;10.70;;;;;;;11.87;48.03;99384.38;4971295;28;21189;-81
2022/04/21 05:21:43;;;;;;;13.00;10.20;;;;;;;11.85;48.12;99386.31;4988874;28;20046;-81
2022/04/21 05:24:10;;;;;;;15.45;10.27;;;;;;;11.86;48.37;99381.84;4947540;28;20231;-82
2022/04/21 05:26:37;;;;;;;17.50;11.10;;;;;;;11.87;48.24;99383.53;4988760;28;20064;-82
2022/04/21 05:32:01;;;;;;;15.07;10.32;;;;;;;11.80;49.09;99383.28;4978965;28;20039;-82
2022/04/21 05:34:29;;;;;;;14.65;9.88;;;;;;;11.88;48.81;99379.88;4991786;28;22322;-81
2022/04/21 05:36:58;;;;;;;15.95;11.32;;;;;;;11.88;49.09;99380.75;4988623;28;20049;-81
2022/04/21 05:39:26;;;;;;;14.25;11.15;;;;;;;11.88;48.92;99377.22;4984016;28;20047;-81
2022/04/21 05:41:53;;;;;;;18.80;10.00;;;;;;;11.88;49.22;99380.75;4988583;28;20060;-82
2022/04/21 05:44:21;;;;;;;15.55;12.40;;;;;;;11.89;49.44;99376.25;4970149;28;20082;-82
2022/04/21 05:46:50;;;;;;;14.45;10.93;;;;;;;11.86;49.51;99371.22;4985085;28;20046;-81
2022/04/21 05:49:17;;;;;;;14.82;10.88;;;;;;;11.89;49.52;99374.41;4968298;28;20042;-81
2022/04/21 05:51:46;;;;;;;14.68;10.20;;;;;;;11.88;49.32;99372.75;4984745;28;20944;-81
2022/04/21 05:54:14;;;;;;;17.17;11.25;;;;;;;11.89;49.58;99377.06;4956543;28;20046;-82
2022/04/21 05:56:41;;;;;;;16.73;11.27;;;;;;;11.91;49.38;99359.13;4989470;28;20109;-81
2022/04/21 05:59:08;;;;;;;15.77;10.38;;;;;;;11.92;49.72;99355.47;4988122;28;20042;-81
2022/04/21 06:01:35;;;;;;;15.88;11.30;;;;;;;11.95;49.80;99362.31;4987878;28;20047;-82
2022/04/21 06:04:02;;;;;;;17.55;12.00;;;;;;;11.94;49.85;99356.16;4988540;28;20409;-82
2022/04/21 06:06:29;;;;;;;21.70;11.63;;;;;;;11.93;49.74;99351.84;4970586;28;20065;-81
2022/04/21 06:08:56;;;;;;;15.63;11.45;;;;;;;11.93;49.95;99350.97;4986175;28;20057;-81
2022/04/21 06:11:24;;;;;;;15.65;11.85;;;;;;;11.93;49.74;99359.81;4968766;28;20041;-81
2022/04/21 06:13:51;;;;;;;21.05;12.73;;;;;;;11.91;50.28;99358.31;4986724;28;20054;-82
2022/04/21 06:16:18;;;;;;;19.05;12.15;;;;;;;11.92;50.36;99363.47;4986761;28;20114;-81
2022/04/21 06:18:45;;;;;;;20.77;12.32;;;;;;;11.95;50.56;99352.50;4984762;28;20074;-82
2022/04/21 06:21:11;;;;;;;21.58;12.00;;;;;;;12.01;50.64;99355.53;4982759;28;20363;-81
2022/04/21 06:23:38;;;;;;;20.95;12.52;;;;;;;12.05;50.67;99346.25;4948438;28;20043;-81
2022/04/21 06:26:06;;;;;;;18.25;12.13;;;;;;;12.05;50.47;99341.75;4972958;28;20052;-81
2022/04/21 06:28:34;;;;;;;22.85;13.43;;;;;;;11.92;51.17;99346.66;4972376;28;20613;-81
2022/04/21 06:31:01;;;;;;;21.27;12.68;;;;;;;11.92;51.53;99354.66;4978874;28;20116;-82
2022/04/21 06:33:31;;;;;;;18.20;11.68;;;;;;;11.89;51.59;99355.78;5004232;28;20062;-82
2022/04/21 06:35:59;;;;;;;22.83;12.80;;;;;;;11.98;51.12;99354.00;4958648;28;20042;-82
2022/04/21 06:38:30;;;;;;;18.58;12.73;;;;;;;11.98;51.40;99348.69;4967265;28;21714;-82
2022/04/21 06:40:56;;;;;;;19.00;12.38;;;;;;;12.00;51.07;99348.53;4986437;28;20043;-82
2022/04/21 06:48:54;;;;;;;17.40;12.18;;;;;;;12.06;50.86;99345.25;4976938;28;20046;-82
2022/04/21 06:51:21;;;;;;;19.38;12.05;;;;;;;12.11;50.74;99345.59;4969624;28;20793;-81
2022/04/21 06:53:48;;;;;;;17.73;11.80;;;;;;;12.13;50.77;99346.28;4967009;28;20052;-82
2022/04/21 06:56:16;;;;;;;17.88;11.90;;;;;;;12.24;50.59;99342.53;4984689;28;20441;-81
2022/04/21 06:58:42;;;;;;;15.60;10.95;;;;;;;12.29;50.77;99343.72;4982552;28;20046;-81
2022/04/21 07:01:09;;;;;;;20.27;12.38;;;;;;;12.30;50.82;99348.03;4948182;28;20053;-82
2022/04/21 07:03:36;;;;;;;20.10;12.05;;;;;;;12.29;51.10;99346.38;4994038;28;20053;-82
2022/04/21 07:06:03;;;;;;;18.13;11.95;;;;;;;12.38;51.15;99349.91;4986586;28;20046;-82
2022/04/21 07:08:30;;;;;;;20.52;12.00;;;;;;;12.34;51.53;99345.91;4988846;28;20540;-82
2022/04/21 07:10:57;;;;;;;18.48;11.00;;;;;;;12.24;51.42;99345.19;4987713;28;20065;-82
2022/04/21 07:13:28;;;;;;;13.55;10.50;;;;;;;12.26;51.50;99349.38;4989866;28;20050;-82
2022/04/21 07:15:54;;;;;;;18.67;11.65;;;;;;;12.28;51.15;99351.84;4991600;28;20046;-81
2022/04/21 07:18:21;;;;;;;18.83;11.68;;;;;;;12.32;51.06;99350.56;4956498;28;20070;-81
2022/04/21 07:20:48;;;;;;;17.10;11.00;;;;;;;12.34;51.37;99352.06;4989561;28;20050;-81
2022/04/21 07:23:15;;;;;;;18.23;10.93;;;;;;;12.38;51.23;99342.75;4972932;28;20046;-81
2022/04/21 07:25:42;;;;;;;14.73;10.00;;;;;;;12.57;51.39;99346.19;4988012;28;20050;-82
2022/04/21 07:28:08;;;;;;;17.92;10.50;;;;;;;12.55;50.81;99343.66;4971934;28;20070;-82
2022/04/21 07:30:35;;;;;;;19.75;9.77;;;;;;;12.41;50.96;99344.25;4986761;28;20445;-81
2022/04/21 07:33:02;;;;;;;16.38;9.35;;;;;;;12.47;50.86;99343.66;4987357;28;20054;-82
2022/04/21 07:35:29;;;;;;;16.70;8.73;;;;;;;12.54;50.68;99343.81;4987093;28;20046;-81
2022/04/21 07:37:59;;;;;;;11.85;8.35;;;;;;;12.54;50.56;99341.16;4989194;28;20461;-81
2022/04/21 07:40:26;;;;;;;14.90;7.78;;;;;;;12.53;50.64;99344.81;4991423;28;20132;-82
2022/04/21 07:42:54;;;;;;;16.35;8.73;;;;;;;12.59;51.00;99337.03;4987740;28;20049;-82
2022/04/21 07:45:21;;;;;;;14.07;8.52;;;;;;;12.60;50.76;99345.84;4972878;28;20074;-81
2022/04/21 07:47:48;;;;;;;13.52;8.07;;;;;;;12.64;50.41;99344.53;4989873;28;20045;-82
2022/04/21 07:50:15;;;;;;;11.88;7.75;;;;;;;12.67;50.48;99336.22;4989546;28;20051;-82
2022/04/21 07:53:14;;;;;;;12.80;7.80;;;;;;;12.70;50.49;99349.22;4953227;28;20412;-82
2022/04/21 07:55:46;;;;;;;13.95;8.50;;;;;;;12.70;50.55;99343.06;4992244;28;20502;-82
2022/04/21 07:58:13;;;;;;;14.02;8.35;;;;;;;12.62;50.54;99343.88;4983216;28;20053;-81
2022/04/21 08:00:40;;;;;;;15.40;8.70;;;;;;;12.73;50.67;99340.06;4970534;28;20034;-82
2022/04/21 08:03:11;;;;;;;15.65;8.95;;;;;;;12.77;50.54;99347.59;4968113;28;20130;-82
2022/04/21 08:05:41;;;;;;;15.13;9.10;;;;;;;12.85;49.92;99345.91;4970751;28;20085;-82
2022/04/21 08:08:11;;;;;;;16.27;8.43;;;;;;;12.75;49.84;99330.09;4985341;28;20093;-81
2022/04/21 08:10:38;;;;;;;15.20;8.88;;;;;;;12.76;50.24;99337.09;4971288;28;20046;-82
2022/04/21 08:13:05;;;;;;;13.32;8.13;;;;;;;12.81;50.72;99340.91;4989967;28;20096;-82
2022/04/21 08:15:33;;;;;;;16.08;9.20;;;;;;;12.85;50.82;99346.78;4990820;28;20049;-82
2022/04/21 08:18:02;;;;;;;14.43;8.20;;;;;;;12.82;49.86;99333.75;5002369;28;20050;-81
2022/04/21 08:20:30;;;;;;;16.35;8.45;;;;;;;12.84;49.87;99333.59;4975097;28;20497;-82
2022/04/21 08:22:58;;;;;;;13.63;7.65;;;;;;;12.87;49.70;99331.44;4987436;28;20393;-81
2022/04/21 08:34:18;;;;;;;11.77;7.38;;;;;;;12.88;49.18;99333.13;4985390;28;20054;-81
2022/04/21 08:36:51;;;;;;;;;;;;;;;12.62;49.83;99335.03;4984380;28;20061;-81
2022/04/21 08:39:19;;;;;;;13.57;8.02;;;;;;;12.81;49.19;99324.09;4985809;28;19922;-81
2022/04/21 08:41:52;;;;;;;12.63;7.20;;;;;;;12.84;49.14;99328.28;4985440;28;20445;-81
2022/04/21 08:44:19;;;;;;;12.73;7.75;;;;;;;12.90;49.34;99323.13;4967590;28;20049;-81
2022/04/21 08:46:52;;;;;;;9.00;6.22;;;;;;;12.90;48.97;99316.94;4968306;28;20053;-81
2022/04/21 08:49:21;;;;;;;11.20;7.95;;;;;;;12.96;48.97;99319.81;4969361;28;20042;-81
2022/04/21 08:51:48;;;;;;;13.20;7.75;;;;;;;13.04;48.91;99311.00;4985368;28;20510;-81
2022/04/21 08:54:14;;;;;;;12.95;7.43;;;;;;;13.07;48.89;99320.50;4952507;28;20043;-81
2022/04/21 08:56:41;;;;;;;14.32;8.80;;;;;;;12.93;49.58;99319.31;4966427;28;20129;-81
2022/04/21 08:59:08;;;;;;;12.00;7.88;;;;;;;12.87;48.90;99331.44;4952616;28;20510;-82
2022/04/21 09:01:35;;;;;;;14.25;8.52;;;;;;;12.86;48.77;99318.28;4982563;28;20042;-81
2022/04/21 09:04:01;;;;;;;14.32;8.15;;;;;;;12.91;49.16;99315.97;4985202;28;20159;-81
2022/04/21 09:06:29;;;;;;;12.95;7.78;;;;;;;12.88;49.01;99317.13;4970572;28;20386;-81
2022/04/21 09:09:21;;;;;;;14.85;9.10;;;;;;;12.81;48.90;99326.78;4959774;28;20042;-81
2022/04/21 09:11:53;;;;;;;12.98;8.13;;;;;;;12.87;49.08;99312.78;4947508;28;20043;-82
2022/04/21 09:14:20;;;;;;;19.00;9.73;;;;;;;13.00;48.93;99323.81;5001751;28;20053;-81
2022/04/21 09:16:48;;;;;;;14.70;8.48;;;;;;;12.95;49.32;99315.50;4985356;28;20054;-81
2022/04/21 09:19:15;;;;;;;14.20;8.52;;;;;;;13.00;49.91;99322.97;4983106;28;20046;-81
2022/04/21 09:21:42;;;;;;;15.43;9.25;;;;;;;13.09;50.12;99329.16;4971114;28;20076;-81
2022/04/21 09:24:19;;;;;;;14.02;8.63;;;;;;;12.85;50.48;99312.13;4989245;28;20046;-81
2022/04/21 09:26:46;;;;;;;17.52;8.45;;;;;;;12.95;49.33;99311.97;4945097;28;20045;-81
2022/04/21 09:29:30;;;;;;;12.18;8.02;;;;;;;12.99;50.66;99318.66;4982108;28;20046;-81
2022/04/21 09:32:02;;;;;;;13.90;8.73;;;;;;;13.04;49.54;99311.00;4971855;28;20199;-81
2022/04/21 09:34:35;;;;;;;13.43;7.80;;;;;;;12.99;49.99;99326.66;4974090;28;20058;-82
2022/04/21 09:37:08;;;;;;;16.73;8.55;;;;;;;12.97;50.31;99329.47;4985526;28;20045;-81
2022/04/21 09:39:41;;;;;;;15.48;8.50;;;;;;;13.00;50.35;99329.16;5003565;28;20057;-81
2022/04/21 09:42:08;;;;;;;15.10;9.98;;;;;;;12.93;49.82;99320.16;4969116;28;20433;-81
2022/04/21 09:47:28;;;;;;;14.15;8.18;;;;;;;12.97;50.08;99300.16;4989773;28;20049;-81
2022/04/21 09:49:55;;;;;;;19.65;10.73;;;;;;;13.16;49.30;99295.53;4933069;28;20042;-81
2022/04/21 09:52:26;;;;;;;15.10;9.63;;;;;;;13.07;49.91;99301.84;4988803;28;20097;-82
2022/04/21 09:54:53;;;;;;;16.83;9.70;;;;;;;13.11;49.98;99298.69;4986401;28;20056;-84
2022/04/21 09:57:31;;;;;;;16.95;10.23;;;;;;;13.05;49.95;99291.31;4983821;28;20506;-84
2022/04/21 10:00:01;;;;;;;16.90;10.02;;;;;;;13.14;50.11;99289.53;5002963;28;20047;-84
2022/04/21 10:02:31;;;;;;;;;;;;;;;12.93;51.20;99284.69;4953458;28;20097;-84
2022/04/21 10:04:58;;;;;;;18.45;9.18;;;;;;;13.21;50.61;99282.53;4990385;28;20330;-85
2022/04/21 10:07:26;;;;;;;17.30;9.07;;;;;;;13.38;51.27;99281.56;4988366;28;20091;-83
2022/04/21 10:09:54;;;;;;;20.05;11.27;;;;;;;13.39;50.19;99269.06;4970830;28;20041;-84
2022/04/21 10:12:22;;;;;;;14.32;9.75;;;;;;;13.31;49.95;99269.91;4971943;28;20046;-84
2022/04/21 10:14:49;;;;;;;16.63;10.40;;;;;;;13.37;49.58;99269.22;4969852;28;20613;-84
2022/04/21 10:17:16;;;;;;;19.20;10.48;;;;;;;13.37;49.99;99268.38;4951989;28;20093;-85
2022/04/21 10:19:48;;;;;;;17.48;10.05;;;;;;;13.34;49.73;99253.56;4981928;28;20046;-85
2022/04/21 10:22:19;;;;;;;16.77;11.23;;;;;;;13.41;49.53;99259.91;4951739;28;20480;-84
2022/04/21 10:24:46;;;;;;;17.42;11.27;;;;;;;13.25;50.14;99258.03;5000581;28;20042;-85
2022/04/21 10:27:36;;;;;;;17.00;10.60;;;;;;;13.31;49.44;99247.75;4990679;28;20050;-85
2022/04/21 10:30:13;;;;;;;15.90;10.35;;;;;;;13.39;50.01;99253.06;4972298;28;20581;-84
2022/04/21 10:32:50;;;;;;;18.88;10.63;;;;;;;13.33;49.60;99246.56;4984931;28;20829;-84
2022/04/21 10:35:40;;;;;;;13.82;9.15;;;;;;;13.50;49.99;99251.88;4902757;28;20145;-85
2022/04/21 10:38:13;;;;;;;17.90;10.20;;;;;;;13.45;49.91;99236.38;4916235;28;20084;-82
2022/04/21 10:41:10;;;;;;;18.83;10.23;;;;;;;13.58;49.97;99242.00;4909134;28;20130;-82
2022/04/21 10:43:52;;;;;;;16.02;9.95;;;;;;;13.53;49.34;99235.53;4893173;28;20089;-81
2022/04/21 10:46:25;;;;;;;19.17;10.30;;;;;;;13.46;49.61;99251.38;4922497;28;20040;-82
2022/04/21 10:48:52;;;;;;;17.83;9.60;;;;;;;13.57;50.31;99220.84;4899457;28;20048;-82
2022/04/21 10:57:12;;;;;;;14.20;9.60;;;;;;;13.34;49.25;99224.22;4894455;28;20125;-81
2022/04/21 10:57:36;;;;;;;19.88;9.80;;;;;;;13.40;49.43;99223.53;4926813;28;20048;-81
2022/04/21 11:00:08;;;;;;;20.55;10.35;;;;;;;13.51;49.31;99235.72;4935618;28;20044;-82
2022/04/21 11:02:41;;;;;;;18.05;10.60;;;;;;;13.54;49.71;99226.53;4920263;28;20051;-82
2022/04/21 11:05:27;;;;;;;14.40;9.98;;;;;;;13.37;49.76;99221.22;4909085;28;20051;-81
2022/04/21 11:07:55;;;;;;;20.08;11.15;;;;;;;13.40;49.20;99210.19;4967524;28;20513;-82
2022/04/21 11:10:37;;;;;;;21.13;11.30;;;;;;;13.34;49.24;99216.22;4972259;28;20050;-81
2022/04/21 11:13:12;;;;;;;20.40;10.02;;;;;;;13.42;48.91;99194.03;4984703;28;20047;-82
2022/04/21 11:15:45;;;;;;;19.65;10.15;;;;;;;13.41;49.28;99192.38;4969885;28;20058;-81
2022/04/21 11:18:30;;;;;;;;;;;;;;;13.28;49.64;99189.41;4973019;28;20058;-81
2022/04/21 11:21:23;;;;;;;17.48;10.52;;;;;;;13.30;49.80;99188.22;4970330;28;19926;-81
2022/04/21 11:23:50;;;;;;;16.73;11.00;;;;;;;13.34;50.11;99186.06;4903492;28;20449;-81
2022/04/21 11:26:17;;;;;;;19.65;11.18;;;;;;;13.41;49.67;99171.88;4970594;28;20462;-82
2022/04/21 11:28:45;;;;;;;19.55;10.73;;;;;;;13.53;49.42;99180.34;4967150;28;20530;-81
2022/04/21 11:31:13;;;;;;;16.60;9.88;;;;;;;13.60;49.55;99172.50;4953469;28;20058;-82
2022/04/21 11:33:40;;;;;;;17.98;9.82;;;;;;;13.71;49.29;99184.63;4983403;28;20050;-81
2022/04/21 11:36:12;;;;;;;16.65;9.60;;;;;;;13.65;49.55;99178.16;4972531;28;20058;-81
2022/04/21 11:38:41;;;;;;;19.53;10.30;;;;;;;13.72;49.48;99179.13;4971941;28;20038;-82
2022/04/21 11:41:09;;;;;;;18.27;10.02;;;;;;;13.77;48.53;99195.47;4966612;28;20043;-82
2022/04/21 11:43:38;;;;;;;18.58;10.23;;;;;;;13.83;48.37;99196.59;4989155;28;20049;-81
2022/04/21 11:46:06;;;;;;;18.58;10.80;;;;;;;13.70;48.90;99180.31;4955740;28;20447;-82
2022/04/21 11:48:36;;;;;;;19.10;10.65;;;;;;;13.91;49.05;99183.22;4969698;28;20047;-82
2022/04/21 11:51:04;;;;;;;18.33;9.40;;;;;;;13.59;49.07;99202.84;4966430;28;20571;-82
2022/04/21 11:53:36;;;;;;;17.92;10.80;;;;;;;13.87;48.95;99177.41;4956592;28;20573;-82
2022/04/21 11:56:04;;;;;;;16.63;10.52;;;;;;;13.93;48.80;99175.88;4988225;28;20325;-82
2022/04/21 11:58:31;;;;;;;17.00;9.80;;;;;;;14.04;48.29;99175.50;4969615;28;20108;-82
2022/04/21 12:07:03;;;;;;;14.35;8.98;;;;;;;13.87;49.58;99158.72;4965046;28;20569;-82
2022/04/21 12:09:33;;;;;;;17.77;10.50;;;;;;;14.10;47.96;99160.63;4952084;28;20539;-81
2022/04/21 12:12:03;;;;;;;22.48;11.27;;;;;;;13.99;47.33;99159.19;4994660;28;20084;-82
2022/04/21 12:14:30;;;;;;;17.17;9.77;;;;;;;14.08;47.79;99143.94;4979184;28;20093;-82
2022/04/21 12:16:58;;;;;;;14.98;9.07;;;;;;;14.11;48.36;99144.41;4990439;28;20144;-88
2022/04/21 12:19:32;;;;;;;13.73;8.88;;;;;;;14.09;47.40;99135.78;4976188;28;20489;-87
2022/04/21 12:22:05;;;;;;;13.30;8.35;;;;;;;14.40;47.26;99155.41;4988296;28;20065;-88
2022/04/21 12:24:39;;;;;;;15.05;9.38;;;;;;;14.28;47.68;99142.50;4970642;28;20509;-88
2022/04/21 12:27:12;;;;;;;16.58;9.95;;;;;;;14.14;47.20;99153.09;5002763;28;20129;-88
2022/04/21 12:30:01;;;;;;;21.65;9.68;;;;;;;13.97;47.89;99144.31;5000976;28;20043;-88
2022/04/21 12:32:36;;;;;;;14.98;10.00;;;;;;;14.09;47.21;99124.22;4955905;28;20072;-88
2022/04/21 12:35:08;;;;;;;18.10;9.85;;;;;;;14.18;47.47;99119.69;5001357;28;20054;-87
2022/04/21 12:37:36;;;;;;;13.50;8.73;;;;;;;14.26;47.80;99128.47;4967350;28;20053;-86
2022/04/21 12:40:05;;;;;;;20.55;11.25;;;;;;;14.41;46.45;99131.22;4985649;28;20121;-88
2022/04/21 12:42:47;;;;;;;15.57;9.65;;;;;;;14.28;46.68;99114.97;4970026;28;20049;-87